createdAt,value
2018-03-19T00:01:10.296Z,57.20
2018-03-19T00:03:38.938Z,57.22
2018-03-19T00:06:06.618Z,56.05
2018-03-19T00:08:34.921Z,57.37
2018-03-19T00:11:02.791Z,56.97
2018-03-19T00:13:30.471Z,57.82
2018-03-19T00:15:58.105Z,57.56
2018-03-19T00:18:25.859Z,57.81
2018-03-19T00:20:53.968Z,56.60
2018-03-19T00:23:21.666Z,57.29
2018-03-19T00:25:49.266Z,56.82
2018-03-19T00:28:16.996Z,56.05
2018-03-19T00:30:44.768Z,57.09
2018-03-19T00:33:12.603Z,56.63
2018-03-19T00:35:40.276Z,56.25
2018-03-19T00:38:07.916Z,55.82
2018-03-19T00:40:35.827Z,57.26
2018-03-19T00:43:03.796Z,57.33
2018-03-19T00:45:31.689Z,56.48
2018-03-19T00:47:59.463Z,56.44
2018-03-19T00:50:28.883Z,55.40
2018-03-19T00:52:58.603Z,56.93
2018-03-19T00:55:33.779Z,57.01
2018-03-19T00:58:01.643Z,57.79
2018-03-19T01:00:29.315Z,58.44
2018-03-19T01:02:59.105Z,55.37
2018-03-19T01:05:27.926Z,57.97
2018-03-19T01:07:55.778Z,56.32
2018-03-19T01:10:23.469Z,56.60
2018-03-19T01:12:51.223Z,55.82
2018-03-19T01:15:18.901Z,56.04
2018-03-19T01:17:46.589Z,55.26
2018-03-19T01:20:15.244Z,55.79
2018-03-19T01:22:43.119Z,55.98
2018-03-19T01:25:10.797Z,54.83
2018-03-19T01:27:38.623Z,56.48
2018-03-19T01:30:06.285Z,55.64
2018-03-19T01:32:34.030Z,55.13
2018-03-19T01:35:01.816Z,55.60
2018-03-19T01:37:29.667Z,54.80
2018-03-19T01:39:58.799Z,56.17
2018-03-19T01:42:26.366Z,54.86
2018-03-19T01:44:54.106Z,56.25
2018-03-19T01:47:21.815Z,54.96
2018-03-19T01:49:49.564Z,54.74
2018-03-19T01:52:17.272Z,55.60
2018-03-19T01:54:44.832Z,54.45
2018-03-19T01:57:12.239Z,54.27
2018-03-19T01:59:39.616Z,55.77
2018-03-19T02:02:06.996Z,54.69
2018-03-19T02:04:34.553Z,54.05
2018-03-19T02:07:01.930Z,54.33
2018-03-19T02:09:29.316Z,55.10
2018-03-19T02:11:56.698Z,54.64
2018-03-19T02:14:24.132Z,54.98
2018-03-19T02:16:51.527Z,55.63
2018-03-19T02:19:18.931Z,54.64
2018-03-19T02:21:46.321Z,54.82
2018-03-19T02:24:13.773Z,54.80
2018-03-19T02:26:42.156Z,54.54
2018-03-19T02:29:09.584Z,53.35
2018-03-19T02:31:37.033Z,54.61
2018-03-19T02:34:04.478Z,53.83
2018-03-19T02:36:31.862Z,54.77
2018-03-19T02:38:59.266Z,54.08
2018-03-19T02:41:26.657Z,53.57
2018-03-19T02:43:54.228Z,55.22
2018-03-19T02:46:21.615Z,54.47
2018-03-19T02:48:49.064Z,55.20
2018-03-19T02:51:17.541Z,54.18
2018-03-19T02:53:45.265Z,55.32
2018-03-19T02:56:12.674Z,54.56
2018-03-19T02:58:40.063Z,53.63
2018-03-19T03:01:07.469Z,54.05
2018-03-19T03:03:34.972Z,55.31
2018-03-19T03:06:02.357Z,54.28
2018-03-19T03:08:29.754Z,55.68
2018-03-19T03:10:58.150Z,54.84
2018-03-19T03:13:25.521Z,53.23
2018-03-19T03:15:52.924Z,54.08
2018-03-19T03:18:20.324Z,53.36
2018-03-19T03:20:47.775Z,53.46
2018-03-19T03:23:15.705Z,54.11
2018-03-19T03:25:43.100Z,54.38
2018-03-19T03:28:10.492Z,55.52
2018-03-19T03:30:37.877Z,54.31
2018-03-19T03:33:05.327Z,53.32
2018-03-19T03:35:32.724Z,52.82
2018-03-19T03:38:00.109Z,53.06
2018-03-19T03:40:28.572Z,53.15
2018-03-19T03:42:55.974Z,53.43
2018-03-19T03:45:23.519Z,53.56
2018-03-19T03:47:50.954Z,53.18
2018-03-19T03:50:18.350Z,56.33
2018-03-19T03:52:45.749Z,53.63
2018-03-19T03:55:13.163Z,53.45
2018-03-19T03:57:40.658Z,52.72
2018-03-19T04:00:08.043Z,54.54
2018-03-19T04:02:35.593Z,53.14
2018-03-19T04:05:02.978Z,52.92
2018-03-19T04:07:32.332Z,52.18
2018-03-19T04:09:59.749Z,54.73
2018-03-19T04:12:27.132Z,53.08
2018-03-19T04:14:54.648Z,52.99
2018-03-19T04:17:22.032Z,54.50
2018-03-19T04:19:49.702Z,52.74
2018-03-19T04:22:17.097Z,52.75
2018-03-19T04:24:44.492Z,52.41
2018-03-19T04:27:11.877Z,53.73
2018-03-19T04:29:39.346Z,52.08
2018-03-19T04:32:06.743Z,52.53
2018-03-19T04:34:34.129Z,52.30
2018-03-19T04:37:01.577Z,53.35
2018-03-19T04:39:28.972Z,53.19
2018-03-19T04:41:56.351Z,53.13
2018-03-19T04:44:23.806Z,53.58
2018-03-19T04:46:51.197Z,52.90
2018-03-19T04:49:18.588Z,54.85
2018-03-19T04:51:45.993Z,54.37
2018-03-19T04:54:14.588Z,54.22
2018-03-19T04:56:41.995Z,53.78
2018-03-19T04:59:09.396Z,53.71
2018-03-19T05:01:36.872Z,53.14
2018-03-19T05:04:04.273Z,53.25
2018-03-19T05:06:31.663Z,53.28
2018-03-19T05:08:59.092Z,55.17
2018-03-19T05:11:26.474Z,54.62
2018-03-19T05:13:53.855Z,54.42
2018-03-19T05:16:21.245Z,54.74
2018-03-19T05:18:48.646Z,54.97
2018-03-19T05:21:16.060Z,54.05
2018-03-19T05:23:43.483Z,55.24
2018-03-19T05:26:10.858Z,54.37
2018-03-19T05:28:38.361Z,54.06
2018-03-19T05:31:10.654Z,54.18
2018-03-19T05:33:38.229Z,54.25
2018-03-19T05:36:05.600Z,54.33
2018-03-19T05:38:33.683Z,54.47
2018-03-19T05:41:01.064Z,54.31
2018-03-19T05:43:29.230Z,54.59
2018-03-19T05:45:56.658Z,55.15
2018-03-19T05:48:24.057Z,54.29
2018-03-19T05:50:51.560Z,53.91
2018-03-19T05:53:18.977Z,54.05
2018-03-19T05:55:46.336Z,54.10
2018-03-19T05:58:13.743Z,53.08
2018-03-19T06:00:41.132Z,53.78
2018-03-19T06:03:08.522Z,53.83
2018-03-19T06:05:35.912Z,54.18
2018-03-19T06:08:03.360Z,53.18
2018-03-19T06:10:30.811Z,54.48
2018-03-19T06:12:58.145Z,53.39
2018-03-19T06:15:25.588Z,52.62
2018-03-19T06:17:53.036Z,53.57
2018-03-19T06:20:20.431Z,53.68
2018-03-19T06:22:47.885Z,52.51
2018-03-19T06:25:15.311Z,52.56
2018-03-19T06:27:42.692Z,53.34
2018-03-19T06:30:10.088Z,54.25
2018-03-19T06:32:37.512Z,52.45
2018-03-19T06:35:04.904Z,51.83
2018-03-19T06:37:32.282Z,52.20
2018-03-19T06:39:59.667Z,51.98
2018-03-19T06:42:27.085Z,51.37
2018-03-19T06:44:54.488Z,51.87
2018-03-19T06:47:21.883Z,51.41
2018-03-19T06:49:49.303Z,51.54
2018-03-19T06:52:16.689Z,52.12
2018-03-19T06:54:44.066Z,52.30
2018-03-19T06:57:11.459Z,50.96
2018-03-19T06:59:38.845Z,51.08
2018-03-19T07:02:06.276Z,51.59
2018-03-19T07:04:33.649Z,51.96
2018-03-19T07:07:01.061Z,51.85
2018-03-19T07:09:28.719Z,51.79
2018-03-19T07:11:56.079Z,51.28
2018-03-19T07:14:23.540Z,50.31
2018-03-19T07:16:50.934Z,50.84
2018-03-19T07:19:18.354Z,51.11
2018-03-19T07:21:45.752Z,52.00
2018-03-19T07:24:13.249Z,50.60
2018-03-19T07:26:40.641Z,51.11
2018-03-19T07:29:08.028Z,49.72
2018-03-19T07:31:35.709Z,50.12
2018-03-19T07:34:03.115Z,49.91
2018-03-19T07:36:30.522Z,50.67
2018-03-19T07:38:57.917Z,50.06
2018-03-19T07:41:25.413Z,50.09
2018-03-19T07:43:52.940Z,50.10
2018-03-19T07:46:20.344Z,49.70
2018-03-19T07:48:47.732Z,49.48
2018-03-19T07:51:15.164Z,49.94
2018-03-19T07:53:42.697Z,50.92
2018-03-19T07:56:10.077Z,49.60
2018-03-19T07:58:37.597Z,49.90
2018-03-19T08:01:05.093Z,50.74
2018-03-19T08:03:32.479Z,49.18
2018-03-19T08:06:00.145Z,49.52
2018-03-19T08:08:27.601Z,49.36
2018-03-19T08:10:54.988Z,48.67
2018-03-19T08:13:22.362Z,49.45
2018-03-19T08:15:49.774Z,48.38
2018-03-19T08:18:17.140Z,48.59
2018-03-19T08:20:44.554Z,48.24
2018-03-19T08:23:11.961Z,48.54
2018-03-19T08:25:39.352Z,48.26
2018-03-19T08:28:06.720Z,48.80
2018-03-19T08:30:34.159Z,48.32
2018-03-19T08:33:01.496Z,48.38
2018-03-19T08:35:28.893Z,48.31
2018-03-19T08:37:56.290Z,48.73
2018-03-19T08:40:23.681Z,47.50
2018-03-19T08:42:51.056Z,48.02
2018-03-19T08:45:18.448Z,48.52
2018-03-19T08:47:45.821Z,46.55
2018-03-19T08:50:13.228Z,47.83
2018-03-19T08:52:40.608Z,47.03
2018-03-19T08:55:07.991Z,48.08
2018-03-19T08:57:35.424Z,46.28
2018-03-19T09:00:02.824Z,46.83
2018-03-19T09:02:30.346Z,47.35
2018-03-19T09:04:57.862Z,46.40
2018-03-19T09:07:25.285Z,45.49
2018-03-19T09:09:53.113Z,47.76
2018-03-19T09:12:20.508Z,46.35
2018-03-19T09:14:47.880Z,47.28
2018-03-19T09:17:15.282Z,46.60
2018-03-19T09:19:42.650Z,44.36
2018-03-19T09:22:10.038Z,46.41
2018-03-19T09:24:37.484Z,44.92
2018-03-19T09:27:04.961Z,45.64
2018-03-19T09:29:32.400Z,46.08
2018-03-19T09:32:00.689Z,45.62
2018-03-19T09:34:28.063Z,45.48
2018-03-19T09:36:55.658Z,45.00
2018-03-19T09:39:23.120Z,44.12
2018-03-19T09:41:50.504Z,44.32
2018-03-19T09:44:18.033Z,44.64
2018-03-19T09:46:45.421Z,43.79
2018-03-19T09:49:12.835Z,44.39
2018-03-19T09:51:40.398Z,46.13
2018-03-19T09:54:07.791Z,45.36
2018-03-19T09:56:35.175Z,46.42
2018-03-19T09:59:02.756Z,45.62
2018-03-19T10:01:30.773Z,44.86
2018-03-19T10:03:58.268Z,43.62
2018-03-19T10:06:25.682Z,45.46
2018-03-19T10:08:53.107Z,43.90
2018-03-19T10:11:20.491Z,44.38
2018-03-19T10:13:47.906Z,45.06
2018-03-19T10:16:15.385Z,43.41
2018-03-19T10:18:42.733Z,43.23
2018-03-19T10:21:10.139Z,44.26
2018-03-19T10:23:37.624Z,43.78
2018-03-19T10:26:05.036Z,43.73
2018-03-19T10:28:32.439Z,43.60
2018-03-19T10:31:00.869Z,43.50
2018-03-19T10:33:28.328Z,43.62
2018-03-19T10:35:55.689Z,41.97
2018-03-19T10:38:23.204Z,42.83
2018-03-19T10:40:50.616Z,43.83
2018-03-19T10:43:18.240Z,42.27
2018-03-19T10:45:45.825Z,42.16
2018-03-19T10:48:13.295Z,45.14
2018-03-19T10:50:40.701Z,42.95
2018-03-19T10:53:08.132Z,45.56
2018-03-19T10:55:35.542Z,45.62
2018-03-19T10:58:02.938Z,41.49
2018-03-19T11:00:31.144Z,43.88
2018-03-19T11:03:04.168Z,41.92
2018-03-19T11:05:31.581Z,42.63
2018-03-19T11:08:04.642Z,42.27
2018-03-19T11:10:32.041Z,43.44
2018-03-19T11:12:59.453Z,41.61
2018-03-19T11:15:26.853Z,41.42
2018-03-19T11:17:54.247Z,42.34
2018-03-19T11:20:21.644Z,41.62
2018-03-19T11:22:49.037Z,41.42
2018-03-19T11:25:16.416Z,42.09
2018-03-19T11:27:43.805Z,41.42
2018-03-19T11:30:11.209Z,43.47
2018-03-19T11:32:38.633Z,43.19
2018-03-19T11:35:06.017Z,41.16
2018-03-19T11:37:33.401Z,42.55
2018-03-19T11:40:01.300Z,41.88
2018-03-19T11:42:28.692Z,42.25
2018-03-19T11:45:04.026Z,44.23
2018-03-19T11:47:34.441Z,42.58
2018-03-19T11:50:01.962Z,40.53
2018-03-19T11:52:29.370Z,41.00
2018-03-19T11:54:56.746Z,41.10
2018-03-19T11:57:24.132Z,41.10
2018-03-19T11:59:51.519Z,42.49
2018-03-19T12:02:18.950Z,39.38
2018-03-19T12:04:46.342Z,40.74
2018-03-19T12:07:13.725Z,40.67
2018-03-19T12:09:41.163Z,40.24
2018-03-19T12:12:08.542Z,40.17
2018-03-19T12:14:35.965Z,40.19
2018-03-19T12:17:03.366Z,38.71
2018-03-19T12:19:31.484Z,40.16
2018-03-19T12:21:59.246Z,38.60
2018-03-19T12:24:26.621Z,38.60
2018-03-19T12:26:54.913Z,39.34
2018-03-19T12:29:22.302Z,38.24
2018-03-19T12:31:49.689Z,38.33
2018-03-19T12:34:17.074Z,38.60
2018-03-19T12:36:44.473Z,38.92
2018-03-19T12:39:11.865Z,37.65
2018-03-19T12:41:39.279Z,38.64
2018-03-19T12:44:06.666Z,37.79
2018-03-19T12:46:34.045Z,38.42
2018-03-19T12:49:01.695Z,37.76
2018-03-19T12:51:30.894Z,37.98
2018-03-19T12:53:58.277Z,37.83
2018-03-19T12:56:25.658Z,39.15
2018-03-19T12:58:53.045Z,37.66
2018-03-19T13:01:20.420Z,39.05
2018-03-19T13:03:47.831Z,38.51
2018-03-19T13:06:15.541Z,37.19
2018-03-19T13:08:42.949Z,38.47
2018-03-19T13:11:10.320Z,37.94
2018-03-19T13:13:37.707Z,38.01
2018-03-19T13:16:05.086Z,38.88
2018-03-19T13:18:32.581Z,38.41
2018-03-19T13:20:59.962Z,38.39
2018-03-19T13:23:27.399Z,37.71
2018-03-19T13:25:55.738Z,37.61
2018-03-19T13:28:23.170Z,38.54
2018-03-19T13:30:50.591Z,37.65
2018-03-19T13:33:17.952Z,38.43
2018-03-19T13:35:45.332Z,36.96
2018-03-19T13:38:12.726Z,37.97
2018-03-19T13:40:40.109Z,36.96
2018-03-19T13:43:07.490Z,37.64
2018-03-19T13:45:35.790Z,37.68
2018-03-19T13:48:03.174Z,38.26
2018-03-19T13:50:30.575Z,38.76
2018-03-19T13:52:57.952Z,38.34
2018-03-19T13:55:25.354Z,38.92
2018-03-19T13:57:52.725Z,40.01
2018-03-19T14:00:20.128Z,38.70
2018-03-19T14:02:47.585Z,38.78
2018-03-19T14:05:14.988Z,40.03
2018-03-19T14:07:42.385Z,39.49
2018-03-19T14:10:09.777Z,39.48
2018-03-19T14:12:37.148Z,38.51
2018-03-19T14:15:04.545Z,38.32
2018-03-19T14:17:32.216Z,38.44
2018-03-19T14:19:59.613Z,37.78
2018-03-19T14:22:27.064Z,37.98
2018-03-19T14:24:56.284Z,35.45
2018-03-19T14:27:23.664Z,34.68
2018-03-19T14:29:51.077Z,32.07
2018-03-19T14:32:18.453Z,32.68
2018-03-19T14:34:45.842Z,31.52
2018-03-19T14:37:13.237Z,31.87
2018-03-19T14:39:40.636Z,30.64
2018-03-19T14:42:08.039Z,30.90
2018-03-19T14:44:35.420Z,31.18
2018-03-19T14:47:02.825Z,29.79
2018-03-19T14:49:30.214Z,29.07
2018-03-19T14:52:01.873Z,29.47
2018-03-19T14:54:32.411Z,29.07
2018-03-19T14:57:00.638Z,27.50
2018-03-19T14:59:31.630Z,28.25
2018-03-19T15:02:05.068Z,27.24
2018-03-19T15:04:32.608Z,27.85
2018-03-19T15:07:00.826Z,29.48
2018-03-19T15:09:28.213Z,27.41
2018-03-19T15:11:55.628Z,28.89
2018-03-19T15:14:23.026Z,28.21
2018-03-19T15:16:50.419Z,27.61
2018-03-19T15:19:17.838Z,29.21
2018-03-19T15:21:45.241Z,28.62
2018-03-19T15:24:12.642Z,27.58
2018-03-19T15:26:40.064Z,27.95
2018-03-19T15:29:07.454Z,27.00
2018-03-19T15:31:34.849Z,28.76
2018-03-19T15:34:02.613Z,26.92
2018-03-19T15:36:30.004Z,28.00
2018-03-19T15:38:57.414Z,27.80
2018-03-19T15:41:24.845Z,27.74
2018-03-19T15:43:52.262Z,26.79
2018-03-19T15:46:19.633Z,26.35
2018-03-19T15:48:47.048Z,25.65
2018-03-19T15:51:14.451Z,28.39
2018-03-19T15:53:41.824Z,27.26
2018-03-19T15:56:09.218Z,27.72
2018-03-19T15:58:36.636Z,24.88
2018-03-19T16:01:04.040Z,26.08
2018-03-19T16:03:31.417Z,25.66
2018-03-19T16:05:58.818Z,26.76
2018-03-19T16:08:26.228Z,26.31
2018-03-19T16:10:53.649Z,27.60
2018-03-19T16:13:21.043Z,27.38
2018-03-19T16:15:48.437Z,26.65
2018-03-19T16:18:15.861Z,28.21
2018-03-19T16:20:43.251Z,27.47
2018-03-19T16:23:10.640Z,27.87
2018-03-19T16:25:38.014Z,27.85
2018-03-19T16:28:05.447Z,28.38
2018-03-19T16:30:32.825Z,26.17
2018-03-19T16:33:00.220Z,26.16
2018-03-19T16:35:27.628Z,27.05
2018-03-19T16:37:55.018Z,27.80
2018-03-19T16:40:22.412Z,28.76
2018-03-19T16:42:49.846Z,28.03
2018-03-19T16:45:17.392Z,27.68
2018-03-19T16:47:44.952Z,28.96
2018-03-19T16:50:13.695Z,30.92
2018-03-19T16:52:42.253Z,31.75
2018-03-19T16:55:09.633Z,32.13
2018-03-19T16:57:37.035Z,32.66
2018-03-19T17:00:04.436Z,32.67
2018-03-19T17:02:32.783Z,32.35
2018-03-19T17:05:00.177Z,33.39
2018-03-19T17:07:27.561Z,34.11
2018-03-19T17:09:54.954Z,33.67
2018-03-19T17:12:22.436Z,34.26
2018-03-19T17:14:49.854Z,34.46
2018-03-19T17:17:17.250Z,34.98
2018-03-19T17:19:44.641Z,35.41
2018-03-19T17:22:12.044Z,35.00
2018-03-19T17:24:39.507Z,35.23
2018-03-19T17:27:07.208Z,35.03
2018-03-19T17:29:34.698Z,35.89
2018-03-19T17:32:03.000Z,35.82
2018-03-19T17:34:30.510Z,36.07
2018-03-19T17:36:57.907Z,35.74
2018-03-19T17:39:25.277Z,36.44
2018-03-19T17:41:52.685Z,36.40
2018-03-19T17:44:20.090Z,36.21
2018-03-19T17:46:47.492Z,36.12
2018-03-19T17:49:14.894Z,36.33
2018-03-19T17:51:42.388Z,36.30
2018-03-19T17:54:09.877Z,36.60
2018-03-19T17:56:37.249Z,37.28
2018-03-19T17:59:04.641Z,37.06
2018-03-19T18:01:33.155Z,37.42
2018-03-19T18:04:00.546Z,37.38
2018-03-19T18:06:28.040Z,38.01
2018-03-19T18:08:55.458Z,37.70
2018-03-19T18:11:22.840Z,37.83
2018-03-19T18:13:50.242Z,38.24
2018-03-19T18:16:17.671Z,38.18
2018-03-19T18:18:45.097Z,38.77
2018-03-19T18:21:12.492Z,38.05
2018-03-19T18:23:39.920Z,37.79
2018-03-19T18:26:07.518Z,38.19
2018-03-19T18:28:34.906Z,38.90
2018-03-19T18:31:03.119Z,38.39
2018-03-19T18:33:30.829Z,38.41
2018-03-19T18:35:58.200Z,38.78
2018-03-19T18:38:25.793Z,38.79
2018-03-19T18:40:53.212Z,39.17
2018-03-19T18:43:20.672Z,39.19
2018-03-19T18:45:48.127Z,39.28
2018-03-19T18:48:15.597Z,39.13
2018-03-19T18:50:43.095Z,39.71
2018-03-19T18:53:10.485Z,40.17
2018-03-19T18:55:38.978Z,39.85
2018-03-19T18:58:06.481Z,40.04
2018-03-19T19:00:34.196Z,39.76
2018-03-19T19:03:01.574Z,39.76
2018-03-19T19:05:29.149Z,39.88
2018-03-19T19:07:56.528Z,39.91
2018-03-19T19:10:33.474Z,40.36
2018-03-19T19:13:05.386Z,40.33
2018-03-19T19:15:33.374Z,40.19
2018-03-19T19:18:00.806Z,40.43
2018-03-19T19:20:28.283Z,41.02
2018-03-19T19:22:55.873Z,39.71
2018-03-19T19:25:23.327Z,40.47
2018-03-19T19:27:50.705Z,40.71
2018-03-19T19:30:18.174Z,40.74
2018-03-19T19:32:45.562Z,41.04
2018-03-19T19:35:12.970Z,40.81
2018-03-19T19:37:40.349Z,40.33
2018-03-19T19:40:07.766Z,40.39
2018-03-19T19:42:35.140Z,41.21
2018-03-19T19:45:03.450Z,40.83
2018-03-19T19:47:30.918Z,41.14
2018-03-19T19:49:58.297Z,41.06
2018-03-19T19:52:25.767Z,40.97
2018-03-19T19:54:53.092Z,41.35
2018-03-19T19:57:22.571Z,41.09
2018-03-19T19:59:49.984Z,40.37
2018-03-19T20:02:17.371Z,40.96
2018-03-19T20:04:44.749Z,40.95
2018-03-19T20:07:12.164Z,40.89
2018-03-19T20:09:43.992Z,41.07
2018-03-19T20:12:11.410Z,41.34
2018-03-19T20:14:38.868Z,41.36
2018-03-19T20:17:06.265Z,41.46
2018-03-19T20:19:33.677Z,40.86
2018-03-19T20:22:01.186Z,41.33
2018-03-19T20:24:28.580Z,41.79
2018-03-19T20:26:55.985Z,41.74
2018-03-19T20:29:23.595Z,41.75
2018-03-19T20:31:50.901Z,41.73
2018-03-19T20:34:18.416Z,41.62
2018-03-19T20:36:45.795Z,41.08
2018-03-19T20:39:13.196Z,41.69
2018-03-19T20:41:40.591Z,41.62
2018-03-19T20:44:07.980Z,41.58
2018-03-19T20:46:35.393Z,42.11
2018-03-19T20:49:02.816Z,42.17
2018-03-19T20:51:30.228Z,42.13
2018-03-19T20:53:58.487Z,41.96
2018-03-19T20:56:25.892Z,42.04
2018-03-19T20:58:53.292Z,41.97
2018-03-19T21:01:21.657Z,41.81
2018-03-19T21:03:49.105Z,41.68
2018-03-19T21:06:16.485Z,41.81
2018-03-19T21:08:43.925Z,41.79
2018-03-19T21:11:11.310Z,42.33
2018-03-19T21:13:38.696Z,43.03
2018-03-19T21:16:06.140Z,42.93
2018-03-19T21:18:33.821Z,42.58
2018-03-19T21:21:01.461Z,42.00
2018-03-19T21:23:28.836Z,43.01
2018-03-19T21:25:56.249Z,43.19
2018-03-19T21:28:23.641Z,43.05
2018-03-19T21:30:51.150Z,42.72
2018-03-19T21:33:18.644Z,43.07
2018-03-19T21:35:46.048Z,43.37
2018-03-19T21:38:13.706Z,43.06
2018-03-19T21:40:41.192Z,43.53
2018-03-19T21:43:08.593Z,43.06
2018-03-19T21:45:35.988Z,42.59
2018-03-19T21:48:04.211Z,42.79
2018-03-19T21:50:31.627Z,43.61
2018-03-19T21:52:59.069Z,43.40
2018-03-19T21:55:26.577Z,43.21
2018-03-19T21:57:53.993Z,43.08
2018-03-19T22:00:21.438Z,43.03
2018-03-19T22:02:49.003Z,42.79
2018-03-19T22:05:16.385Z,42.79
2018-03-19T22:07:43.796Z,42.56
2018-03-19T22:10:11.265Z,43.29
2018-03-19T22:12:38.661Z,42.81
2018-03-19T22:15:06.059Z,43.37
2018-03-19T22:17:34.152Z,43.43
2018-03-19T22:20:01.546Z,43.56
2018-03-19T22:22:28.937Z,43.36
2018-03-19T22:24:56.440Z,43.35
2018-03-19T22:27:23.880Z,44.15
2018-03-19T22:29:51.256Z,44.08
2018-03-19T22:32:18.656Z,44.23
2018-03-19T22:34:46.089Z,43.62
2018-03-19T22:37:13.786Z,43.82
2018-03-19T22:39:41.210Z,43.52
2018-03-19T22:42:08.594Z,43.44
2018-03-19T22:44:36.513Z,43.83
2018-03-19T22:47:04.268Z,43.33
2018-03-19T22:49:31.657Z,44.13
2018-03-19T22:51:59.161Z,44.44
2018-03-19T22:54:26.561Z,44.12
2018-03-19T22:56:54.003Z,43.57
2018-03-19T22:59:23.303Z,44.11
2018-03-19T23:01:50.929Z,43.80
2018-03-19T23:04:30.398Z,43.83
2018-03-19T23:06:58.020Z,44.31
2018-03-19T23:09:27.008Z,44.28
2018-03-19T23:11:54.709Z,44.50
2018-03-19T23:14:22.339Z,43.80
2018-03-19T23:16:50.206Z,44.47
2018-03-19T23:19:18.143Z,44.09
2018-03-19T23:21:45.947Z,44.95
2018-03-19T23:24:13.624Z,44.24
2018-03-19T23:26:41.237Z,44.25
2018-03-19T23:29:08.856Z,44.38
2018-03-19T23:31:36.579Z,44.26
2018-03-19T23:34:07.968Z,44.09
2018-03-19T23:36:36.043Z,44.87
2018-03-19T23:39:04.778Z,44.81
2018-03-19T23:41:32.465Z,44.27
2018-03-19T23:44:01.185Z,44.36
2018-03-19T23:46:30.722Z,45.15
2018-03-19T23:48:58.380Z,44.32
2018-03-19T23:51:26.135Z,44.23
2018-03-19T23:53:53.854Z,44.45
2018-03-19T23:56:21.478Z,43.77
2018-03-19T23:58:49.163Z,44.32
